createdAt,value
2019-02-18T00:00:46.642Z,17.10
2019-02-18T00:03:15.096Z,17.30
2019-02-18T00:05:43.767Z,16.93
2019-02-18T00:08:12.153Z,17.50
2019-02-18T00:10:40.539Z,16.60
2019-02-18T00:13:09.244Z,18.27
2019-02-18T00:15:37.768Z,18.10
2019-02-18T00:18:06.183Z,17.70
2019-02-18T00:20:34.671Z,16.47
2019-02-18T00:23:03.080Z,17.50
2019-02-18T00:25:31.489Z,16.77
2019-02-18T00:27:59.879Z,18.93
2019-02-18T00:30:28.619Z,16.30
2019-02-18T00:32:57.298Z,17.37
2019-02-18T00:35:25.691Z,17.30
2019-02-18T00:37:54.463Z,16.73
2019-02-18T00:40:23.246Z,16.23
2019-02-18T00:42:51.942Z,16.27
2019-02-18T00:45:20.629Z,15.47
2019-02-18T00:47:49.025Z,16.70
2019-02-18T00:50:17.481Z,17.20
2019-02-18T00:52:45.889Z,16.27
2019-02-18T00:55:14.268Z,16.03
2019-02-18T00:57:42.662Z,16.17
2019-02-18T01:00:14.563Z,16.40
2019-02-18T01:02:43.386Z,16.80
2019-02-18T01:05:12.262Z,16.33
2019-02-18T01:07:40.801Z,15.93
2019-02-18T01:10:13.627Z,16.10
2019-02-18T01:12:42.319Z,17.40
2019-02-18T01:15:13.189Z,18.10
2019-02-18T01:17:41.539Z,16.50
2019-02-18T01:20:14.908Z,16.70
2019-02-18T01:22:43.318Z,15.33
2019-02-18T01:25:13.422Z,16.43
2019-02-18T01:27:41.829Z,16.87
2019-02-18T01:30:15.516Z,16.40
2019-02-18T01:32:43.982Z,16.57
2019-02-18T01:35:12.908Z,16.33
2019-02-18T01:37:45.864Z,16.20
2019-02-18T01:40:15.316Z,16.30
2019-02-18T01:42:44.001Z,16.10
2019-02-18T01:45:14.069Z,16.77
2019-02-18T01:47:42.484Z,17.00
2019-02-18T01:50:13.490Z,15.67
2019-02-18T01:52:41.949Z,15.67
2019-02-18T01:55:12.172Z,15.93
2019-02-18T01:57:40.823Z,15.37
2019-02-18T02:00:15.071Z,17.07
2019-02-18T02:02:43.469Z,16.30
2019-02-18T02:05:14.121Z,16.70
2019-02-18T02:07:42.614Z,16.67
2019-02-18T02:10:13.240Z,15.57
2019-02-18T02:12:41.693Z,16.00
2019-02-18T02:15:18.816Z,15.80
2019-02-18T02:17:47.270Z,18.73
2019-02-18T02:20:15.673Z,16.83
2019-02-18T02:22:44.093Z,15.90
2019-02-18T02:25:12.486Z,16.77
2019-02-18T02:27:40.910Z,24.20
2019-02-18T02:30:11.012Z,16.60
2019-02-18T02:32:39.468Z,16.57
2019-02-18T02:35:08.183Z,16.53
2019-02-18T02:37:36.866Z,15.67
2019-02-18T02:40:08.491Z,16.47
2019-02-18T02:42:37.210Z,17.60
2019-02-18T02:45:07.531Z,15.57
2019-02-18T02:47:35.919Z,15.87
2019-02-18T02:50:05.557Z,15.07
2019-02-18T02:52:34.207Z,16.10
2019-02-18T02:55:02.601Z,15.00
2019-02-18T02:57:31.108Z,15.13
2019-02-18T02:59:59.860Z,15.20
2019-02-18T03:02:28.272Z,15.80
2019-02-18T03:04:57.024Z,16.23
2019-02-18T03:07:25.731Z,15.63
2019-02-18T03:09:54.156Z,14.60
2019-02-18T03:12:22.544Z,14.90
2019-02-18T03:14:51.357Z,15.27
2019-02-18T03:17:19.909Z,15.90
2019-02-18T03:19:48.622Z,15.90
2019-02-18T03:22:17.036Z,15.90
2019-02-18T03:25:19.560Z,15.07
2019-02-18T03:27:50.112Z,16.33
2019-02-18T03:30:33.774Z,15.17
2019-02-18T03:33:02.377Z,15.80
2019-02-18T03:35:30.752Z,14.83
2019-02-18T03:37:59.481Z,17.17
2019-02-18T03:40:27.879Z,17.47
2019-02-18T03:42:56.281Z,19.33
2019-02-18T03:45:24.677Z,14.43
2019-02-18T03:47:53.064Z,14.97
2019-02-18T03:50:21.714Z,14.87
2019-02-18T03:52:50.116Z,15.70
2019-02-18T03:55:18.776Z,14.60
2019-02-18T03:57:47.271Z,14.47
2019-02-18T04:00:15.868Z,14.90
2019-02-18T04:02:44.246Z,15.27
2019-02-18T04:05:12.639Z,15.37
2019-02-18T04:07:41.032Z,14.67
2019-02-18T04:10:11.070Z,15.33
2019-02-18T04:12:39.467Z,14.57
2019-02-18T04:15:11.228Z,14.90
2019-02-18T04:17:39.708Z,16.53
2019-02-18T04:20:08.747Z,15.90
2019-02-18T04:22:37.135Z,13.63
2019-02-18T04:25:07.079Z,16.50
2019-02-18T04:27:35.792Z,15.00
2019-02-18T04:30:09.732Z,15.00
2019-02-18T04:32:38.118Z,15.13
2019-02-18T04:35:08.354Z,14.97
2019-02-18T04:37:36.913Z,15.57
2019-02-18T04:40:08.466Z,13.17
2019-02-18T04:42:36.992Z,14.90
2019-02-18T04:45:08.062Z,14.27
2019-02-18T04:47:36.491Z,14.77
2019-02-18T04:50:06.312Z,14.00
2019-02-18T04:52:34.937Z,13.93
2019-02-18T04:55:04.188Z,14.27
2019-02-18T04:57:32.585Z,13.93
2019-02-18T05:00:01.304Z,15.53
2019-02-18T05:02:29.987Z,13.70
2019-02-18T05:04:58.390Z,15.73
2019-02-18T05:07:27.055Z,15.30
2019-02-18T05:09:55.764Z,13.30
2019-02-18T05:12:24.229Z,13.73
2019-02-18T05:14:52.913Z,14.97
2019-02-18T05:17:21.701Z,16.43
2019-02-18T05:19:50.086Z,14.80
2019-02-18T05:22:18.509Z,16.83
2019-02-18T05:24:46.911Z,13.97
2019-02-18T05:27:15.301Z,16.03
2019-02-18T05:29:43.691Z,13.90
2019-02-18T05:32:12.088Z,16.60
2019-02-18T05:34:40.533Z,12.47
2019-02-18T05:37:08.930Z,13.87
2019-02-18T05:39:37.316Z,12.90
2019-02-18T05:42:06.000Z,12.90
2019-02-18T05:44:34.400Z,13.50
2019-02-18T05:47:03.062Z,13.23
2019-02-18T05:49:31.479Z,13.20
2019-02-18T05:51:59.849Z,13.57
2019-02-18T05:54:28.272Z,12.53
2019-02-18T05:56:56.916Z,13.17
2019-02-18T05:59:25.339Z,14.70
2019-02-18T06:01:53.713Z,13.63
2019-02-18T06:04:22.124Z,13.83
2019-02-18T06:06:50.899Z,12.97
2019-02-18T06:09:29.076Z,13.63
2019-02-18T06:11:49.510Z,18.87
2019-02-18T06:14:17.901Z,13.37
2019-02-18T06:16:46.303Z,12.47
2019-02-18T06:19:14.790Z,15.47
2019-02-18T06:21:43.194Z,12.50
2019-02-18T06:24:11.577Z,14.40
2019-02-18T06:26:39.990Z,13.37
2019-02-18T06:29:08.372Z,12.40
2019-02-18T06:31:36.775Z,13.17
2019-02-18T06:34:05.232Z,14.63
2019-02-18T06:36:33.626Z,12.30
2019-02-18T06:39:02.027Z,12.63
2019-02-18T06:41:30.457Z,13.23
2019-02-18T06:43:59.157Z,15.27
2019-02-18T06:46:32.252Z,13.30
2019-02-18T06:49:14.539Z,12.90
2019-02-18T06:51:43.062Z,19.27
2019-02-18T06:54:11.451Z,12.63
2019-02-18T06:56:56.797Z,13.53
2019-02-18T06:59:36.129Z,13.57
2019-02-18T07:02:06.262Z,13.23
2019-02-18T07:04:36.573Z,13.40
2019-02-18T07:07:06.905Z,12.63
2019-02-18T07:09:54.934Z,12.40
2019-02-18T07:12:24.984Z,13.50
2019-02-18T07:14:53.378Z,12.83
2019-02-18T07:17:21.824Z,12.63
2019-02-18T07:19:50.505Z,12.83
2019-02-18T07:22:18.891Z,12.50
2019-02-18T07:24:47.296Z,12.63
2019-02-18T07:27:15.765Z,14.20
2019-02-18T07:29:44.424Z,14.00
2019-02-18T07:32:12.837Z,13.80
2019-02-18T07:34:41.489Z,13.63
2019-02-18T07:37:10.181Z,14.30
2019-02-18T07:39:38.872Z,15.20
2019-02-18T07:42:07.273Z,14.07
2019-02-18T07:44:35.928Z,13.30
2019-02-18T07:47:04.641Z,12.90
2019-02-18T07:49:33.301Z,22.57
2019-02-18T07:52:02.003Z,16.50
2019-02-18T07:54:30.401Z,12.90
2019-02-18T07:56:58.982Z,12.63
2019-02-18T07:59:27.414Z,13.97
2019-02-18T08:01:56.237Z,13.60
2019-02-18T08:04:24.910Z,12.87
2019-02-18T08:06:53.592Z,13.43
2019-02-18T08:09:22.283Z,16.93
2019-02-18T08:11:50.971Z,13.33
2019-02-18T08:14:19.960Z,13.67
2019-02-18T08:16:48.346Z,12.50
2019-02-18T08:19:16.738Z,14.30
2019-02-18T08:21:45.400Z,13.83
2019-02-18T08:24:14.088Z,13.33
2019-02-18T08:26:44.195Z,12.97
2019-02-18T08:29:12.749Z,13.40
2019-02-18T08:31:41.202Z,13.57
2019-02-18T08:34:09.558Z,12.93
2019-02-18T08:36:38.236Z,13.30
2019-02-18T08:39:06.908Z,14.63
2019-02-18T08:41:35.602Z,14.17
2019-02-18T08:44:04.302Z,13.53
2019-02-18T08:46:32.705Z,13.23
2019-02-18T08:49:01.360Z,13.23
2019-02-18T08:51:30.050Z,13.43
2019-02-18T08:53:58.769Z,14.10
2019-02-18T08:56:27.420Z,14.17
2019-02-18T08:58:56.211Z,15.53
2019-02-18T09:01:24.999Z,13.13
2019-02-18T09:03:53.392Z,12.43
2019-02-18T09:06:22.096Z,13.50
2019-02-18T09:08:50.783Z,14.50
2019-02-18T09:11:19.243Z,12.87
2019-02-18T09:13:47.748Z,14.27
2019-02-18T09:16:16.401Z,13.83
2019-02-18T09:18:44.781Z,13.43
2019-02-18T09:21:13.206Z,13.90
2019-02-18T09:23:46.200Z,14.00
2019-02-18T09:26:16.362Z,14.40
2019-02-18T09:28:44.849Z,14.20
2019-02-18T09:31:13.538Z,13.50
2019-02-18T09:33:41.938Z,14.60
2019-02-18T09:36:10.601Z,15.60
2019-02-18T09:38:39.060Z,15.37
2019-02-18T09:41:07.771Z,14.87
2019-02-18T09:43:36.447Z,15.03
2019-02-18T09:46:04.913Z,14.33
2019-02-18T09:48:33.327Z,15.47
2019-02-18T09:51:01.997Z,14.53
2019-02-18T09:53:30.395Z,14.90
2019-02-18T09:55:59.163Z,13.93
2019-02-18T09:58:27.565Z,13.93
2019-02-18T10:00:55.952Z,13.80
2019-02-18T10:03:31.511Z,16.10
2019-02-18T10:05:54.529Z,13.90
2019-02-18T10:08:22.943Z,13.97
2019-02-18T10:10:55.765Z,14.67
2019-02-18T10:13:21.453Z,14.33
2019-02-18T10:15:49.844Z,14.83
2019-02-18T10:18:18.574Z,17.93
2019-02-18T10:20:46.972Z,14.23
2019-02-18T10:23:15.461Z,17.77
2019-02-18T10:25:44.221Z,14.83
2019-02-18T10:28:12.909Z,15.53
2019-02-18T10:30:41.303Z,16.27
2019-02-18T10:33:09.699Z,13.93
2019-02-18T10:35:38.160Z,15.60
2019-02-18T10:38:06.561Z,14.50
2019-02-18T10:40:34.955Z,15.03
2019-02-18T10:43:03.357Z,14.93
2019-02-18T10:45:31.764Z,14.90
2019-02-18T10:48:00.228Z,15.30
2019-02-18T10:50:28.616Z,15.30
2019-02-18T10:52:57.822Z,15.03
2019-02-18T10:55:26.513Z,15.07
2019-02-18T10:57:54.933Z,13.80
2019-02-18T11:00:24.020Z,16.27
2019-02-18T11:02:52.408Z,14.40
2019-02-18T11:05:21.054Z,16.23
2019-02-18T11:07:49.747Z,20.80
2019-02-18T11:10:18.834Z,15.30
2019-02-18T11:12:47.851Z,14.73
2019-02-18T11:15:16.190Z,16.73
2019-02-18T11:17:44.968Z,19.40
2019-02-18T11:20:14.815Z,15.40
2019-02-18T11:22:43.205Z,15.60
2019-02-18T11:25:15.503Z,14.67
2019-02-18T11:27:43.909Z,15.60
2019-02-18T11:30:15.579Z,15.83
2019-02-18T11:32:44.285Z,18.50
2019-02-18T11:35:13.018Z,15.77
2019-02-18T11:37:41.758Z,16.87
2019-02-18T11:40:15.340Z,16.50
2019-02-18T11:42:43.800Z,15.90
2019-02-18T11:45:14.097Z,15.63
2019-02-18T11:47:42.498Z,14.90
2019-02-18T11:50:13.476Z,16.03
2019-02-18T11:52:42.034Z,15.50
2019-02-18T11:55:12.283Z,15.67
2019-02-18T11:57:41.122Z,16.50
2019-02-18T12:00:17.362Z,14.97
2019-02-18T12:02:45.747Z,15.77
2019-02-18T12:05:14.607Z,15.23
2019-02-18T12:07:44.424Z,16.00
2019-02-18T12:10:14.084Z,15.27
2019-02-18T12:12:43.037Z,15.87
2019-02-18T12:15:15.293Z,15.20
2019-02-18T12:17:43.762Z,16.03
2019-02-18T12:20:13.927Z,15.00
2019-02-18T12:22:42.356Z,15.00
2019-02-18T12:25:12.336Z,16.13
2019-02-18T12:27:41.093Z,15.60
2019-02-18T12:30:16.883Z,14.30
2019-02-18T12:32:45.624Z,13.90
2019-02-18T12:35:14.305Z,13.90
2019-02-18T12:37:42.708Z,13.57
2019-02-18T12:40:13.149Z,14.23
2019-02-18T12:42:42.536Z,15.87
2019-02-18T12:45:12.664Z,14.70
2019-02-18T12:47:41.127Z,13.80
2019-02-18T12:50:11.064Z,14.90
2019-02-18T12:52:39.739Z,14.03
2019-02-18T12:55:11.861Z,15.30
2019-02-18T12:57:40.463Z,14.97
2019-02-18T13:00:14.970Z,13.90
2019-02-18T13:02:45.005Z,14.90
2019-02-18T13:05:14.171Z,14.53
2019-02-18T13:07:42.617Z,13.80
2019-02-18T13:10:11.738Z,14.40
2019-02-18T13:12:40.417Z,13.23
2019-02-18T13:15:11.845Z,13.73
2019-02-18T13:17:42.566Z,13.50
2019-02-18T13:20:10.449Z,14.93
2019-02-18T13:22:39.312Z,13.87
2019-02-18T13:25:09.233Z,14.33
2019-02-18T13:27:38.015Z,13.77
2019-02-18T13:30:09.746Z,14.53
2019-02-18T13:32:38.141Z,14.50
2019-02-18T13:35:06.862Z,14.43
2019-02-18T13:37:35.614Z,14.10
2019-02-18T13:40:05.263Z,13.83
2019-02-18T13:42:33.651Z,13.80
2019-02-18T13:45:02.532Z,15.53
2019-02-18T13:47:30.946Z,15.13
2019-02-18T13:49:59.330Z,14.63
2019-02-18T13:52:27.734Z,14.13
2019-02-18T13:54:56.428Z,20.53
2019-02-18T13:57:25.110Z,13.73
2019-02-18T13:59:53.505Z,14.20
2019-02-18T14:02:22.174Z,14.77
2019-02-18T14:04:50.586Z,16.10
2019-02-18T14:07:19.004Z,15.13
2019-02-18T14:09:47.505Z,14.90
2019-02-18T14:12:16.501Z,13.47
2019-02-18T14:14:44.906Z,13.80
2019-02-18T14:17:13.644Z,14.20
2019-02-18T14:19:42.024Z,14.23
2019-02-18T14:22:11.086Z,15.33
2019-02-18T14:24:39.737Z,15.37
2019-02-18T14:27:08.225Z,15.23
2019-02-18T14:29:36.618Z,14.80
2019-02-18T14:32:05.368Z,14.57
2019-02-18T14:34:33.775Z,14.77
2019-02-18T14:37:02.174Z,15.50
2019-02-18T14:39:30.955Z,14.43
2019-02-18T14:41:59.419Z,13.90
2019-02-18T14:44:27.814Z,13.70
2019-02-18T14:46:56.266Z,12.80
2019-02-18T14:49:24.655Z,13.70
2019-02-18T14:51:53.110Z,13.47
2019-02-18T14:54:21.662Z,12.93
2019-02-18T14:56:50.129Z,14.20
2019-02-18T14:59:18.528Z,13.67
2019-02-18T15:01:46.929Z,13.37
2019-02-18T15:04:15.724Z,13.13
2019-02-18T15:06:44.122Z,11.80
2019-02-18T15:09:12.504Z,12.40
2019-02-18T15:11:40.904Z,11.93
2019-02-18T15:14:09.307Z,11.10
2019-02-18T15:16:38.362Z,11.23
2019-02-18T15:19:06.808Z,11.53
2019-02-18T15:21:35.195Z,10.97
2019-02-18T15:24:03.592Z,10.03
2019-02-18T15:26:32.060Z,11.73
2019-02-18T15:29:00.608Z,10.37
2019-02-18T15:31:29.015Z,10.37
2019-02-18T15:33:57.408Z,10.30
2019-02-18T15:36:26.068Z,11.17
2019-02-18T15:38:54.471Z,10.00
2019-02-18T15:41:22.857Z,10.37
2019-02-18T15:43:51.270Z,9.80
2019-02-18T15:46:19.663Z,10.33
2019-02-18T15:48:48.124Z,12.07
2019-02-18T15:51:16.762Z,9.50
2019-02-18T15:53:45.155Z,9.77
2019-02-18T15:56:13.784Z,9.40
2019-02-18T15:58:42.173Z,10.17
2019-02-18T16:01:10.628Z,10.03
2019-02-18T16:03:39.018Z,10.73
2019-02-18T16:06:07.681Z,10.27
2019-02-18T16:08:36.678Z,10.93
2019-02-18T16:11:05.360Z,10.57
2019-02-18T16:13:34.044Z,10.10
2019-02-18T16:16:02.464Z,12.03
2019-02-18T16:18:30.903Z,10.90
2019-02-18T16:20:59.319Z,11.67
2019-02-18T16:23:28.077Z,11.43
2019-02-18T16:25:56.545Z,11.57
2019-02-18T16:28:25.027Z,12.60
2019-02-18T16:30:53.481Z,12.70
2019-02-18T16:33:22.203Z,12.40
2019-02-18T16:35:50.589Z,11.00
2019-02-18T16:38:19.203Z,12.03
2019-02-18T16:40:47.624Z,11.17
2019-02-18T16:43:16.912Z,11.93
2019-02-18T16:45:45.641Z,11.80
2019-02-18T16:48:14.408Z,12.07
2019-02-18T16:50:42.810Z,11.90
2019-02-18T16:53:11.520Z,11.60
2019-02-18T16:55:39.947Z,12.67
2019-02-18T16:58:08.332Z,11.03
2019-02-18T17:00:37.501Z,11.63
2019-02-18T17:03:05.942Z,11.70
2019-02-18T17:05:34.333Z,11.10
2019-02-18T17:08:02.731Z,11.30
2019-02-18T17:10:31.577Z,11.90
2019-02-18T17:13:07.896Z,12.87
2019-02-18T17:15:30.383Z,11.67
2019-02-18T17:17:58.768Z,11.70
2019-02-18T17:20:27.181Z,11.27
2019-02-18T17:22:55.570Z,11.67
2019-02-18T17:25:24.427Z,11.87
2019-02-18T17:27:53.021Z,11.53
2019-02-18T17:30:21.682Z,11.97
2019-02-18T17:32:50.370Z,10.40
2019-02-18T17:35:18.777Z,17.97
2019-02-18T17:37:47.159Z,11.60
2019-02-18T17:40:15.716Z,11.07
2019-02-18T17:42:44.700Z,10.67
2019-02-18T17:45:15.899Z,11.07
2019-02-18T17:47:44.279Z,10.53
2019-02-18T17:50:16.898Z,11.97
2019-02-18T17:52:46.296Z,10.40
2019-02-18T17:55:19.501Z,11.30
2019-02-18T17:57:48.187Z,12.20
2019-02-18T18:00:21.536Z,14.60
2019-02-18T18:02:49.941Z,11.20
2019-02-18T18:05:18.595Z,12.83
2019-02-18T18:07:46.998Z,11.27
2019-02-18T18:10:16.125Z,12.90
2019-02-18T18:12:44.807Z,11.80
2019-02-18T18:15:15.733Z,13.00
2019-02-18T18:17:44.361Z,12.10
2019-02-18T18:20:13.984Z,11.13
2019-02-18T18:22:42.379Z,12.67
2019-02-18T18:25:12.692Z,12.03
2019-02-18T18:27:41.090Z,11.93
2019-02-18T18:30:11.972Z,10.60
2019-02-18T18:32:40.590Z,11.70
2019-02-18T18:35:11.013Z,11.77
2019-02-18T18:37:39.554Z,11.90
2019-02-18T18:40:10.747Z,12.23
2019-02-18T18:42:39.126Z,11.47
2019-02-18T18:45:13.146Z,12.77
2019-02-18T18:47:41.531Z,12.67
2019-02-18T18:50:15.886Z,11.53
2019-02-18T18:52:44.823Z,13.67
2019-02-18T18:55:13.216Z,14.13
2019-02-18T18:57:41.650Z,13.87
2019-02-18T19:00:14.575Z,14.30
2019-02-18T19:02:42.966Z,13.17
2019-02-18T19:05:11.634Z,12.87
2019-02-18T19:07:40.339Z,15.37
2019-02-18T19:10:10.079Z,12.63
2019-02-18T19:12:38.778Z,14.00
2019-02-18T19:15:10.825Z,14.10
2019-02-18T19:17:39.210Z,14.57
2019-02-18T19:20:09.105Z,13.37
2019-02-18T19:22:37.673Z,14.10
2019-02-18T19:25:10.820Z,14.13
2019-02-18T19:27:39.631Z,15.17
2019-02-18T19:30:17.164Z,14.43
2019-02-18T19:32:46.087Z,14.90
2019-02-18T19:35:14.469Z,14.10
2019-02-18T19:37:43.101Z,14.10
2019-02-18T19:40:14.219Z,14.53
2019-02-18T19:42:42.647Z,13.77
2019-02-18T19:45:17.315Z,14.80
2019-02-18T19:47:45.717Z,14.17
2019-02-18T19:50:14.248Z,14.23
2019-02-18T19:52:42.736Z,13.50
2019-02-18T19:55:12.387Z,14.33
2019-02-18T19:57:40.873Z,14.50
2019-02-18T20:00:12.365Z,13.70
2019-02-18T20:02:40.789Z,14.67
2019-02-18T20:05:10.225Z,14.00
2019-02-18T20:07:38.703Z,13.37
2019-02-18T20:10:09.827Z,14.33
2019-02-18T20:12:38.278Z,14.27
2019-02-18T20:15:09.724Z,13.47
2019-02-18T20:17:38.109Z,14.40
2019-02-18T20:20:09.518Z,13.80
2019-02-18T20:22:38.223Z,13.67
2019-02-18T20:25:08.051Z,12.63
2019-02-18T20:27:36.608Z,13.03
2019-02-18T20:30:11.262Z,13.13
2019-02-18T20:32:39.654Z,14.10
2019-02-18T20:35:09.476Z,13.10
2019-02-18T20:37:37.876Z,13.60
2019-02-18T20:40:08.017Z,13.60
2019-02-18T20:42:36.501Z,14.53
2019-02-18T20:45:10.481Z,14.10
2019-02-18T20:47:38.943Z,14.60
2019-02-18T20:50:10.585Z,16.63
2019-02-18T20:52:39.046Z,13.47
2019-02-18T20:55:10.405Z,13.83
2019-02-18T20:57:39.768Z,15.10
2019-02-18T21:00:15.580Z,15.07
2019-02-18T21:02:45.565Z,15.73
2019-02-18T21:05:14.017Z,14.20
2019-02-18T21:07:42.443Z,14.90
2019-02-18T21:10:16.775Z,15.00
2019-02-18T21:12:45.171Z,15.63
2019-02-18T21:15:14.005Z,14.60
2019-02-18T21:17:42.388Z,15.43
2019-02-18T21:20:12.526Z,14.70
2019-02-18T21:22:40.984Z,15.53
2019-02-18T21:25:10.756Z,15.63
2019-02-18T21:27:39.461Z,14.53
2019-02-18T21:30:13.220Z,14.53
2019-02-18T21:32:41.617Z,14.83
2019-02-18T21:35:10.386Z,15.87
2019-02-18T21:37:38.764Z,14.77
2019-02-18T21:40:09.608Z,16.10
2019-02-18T21:42:38.050Z,16.53
2019-02-18T21:45:12.320Z,15.60
2019-02-18T21:47:40.750Z,15.33
2019-02-18T21:50:11.293Z,14.30
2019-02-18T21:52:39.948Z,15.40
2019-02-18T21:55:10.529Z,15.73
2019-02-18T21:57:39.214Z,15.73
2019-02-18T22:00:21.413Z,15.03
2019-02-18T22:02:50.434Z,15.97
2019-02-18T22:05:19.386Z,14.83
2019-02-18T22:07:48.090Z,14.90
2019-02-18T22:10:16.778Z,15.30
2019-02-18T22:12:45.243Z,14.90
2019-02-18T22:15:15.249Z,15.93
2019-02-18T22:17:43.645Z,15.27
2019-02-18T22:20:13.569Z,15.40
2019-02-18T22:22:42.206Z,15.83
2019-02-18T22:25:12.028Z,15.80
2019-02-18T22:27:40.491Z,15.67
2019-02-18T22:30:16.410Z,16.43
2019-02-18T22:32:45.114Z,15.77
2019-02-18T22:35:14.285Z,15.20
2019-02-18T22:37:42.695Z,15.60
2019-02-18T22:40:13.220Z,15.83
2019-02-18T22:42:41.632Z,14.93
2019-02-18T22:45:11.559Z,15.63
2019-02-18T22:47:40.235Z,15.63
2019-02-18T22:50:10.958Z,15.50
2019-02-18T22:52:39.629Z,14.80
2019-02-18T22:55:09.823Z,14.50
2019-02-18T22:57:38.211Z,16.40
2019-02-18T23:00:32.428Z,15.37
2019-02-18T23:03:00.833Z,14.90
2019-02-18T23:05:29.215Z,15.33
2019-02-18T23:07:57.604Z,15.93
2019-02-18T23:10:26.007Z,14.67
2019-02-18T23:12:54.387Z,17.00
2019-02-18T23:15:22.782Z,15.17
2019-02-18T23:17:51.452Z,16.70
2019-02-18T23:20:19.844Z,17.20
2019-02-18T23:22:48.427Z,15.57
2019-02-18T23:25:17.125Z,15.40
2019-02-18T23:27:45.509Z,15.13
2019-02-18T23:30:14.163Z,15.30
2019-02-18T23:32:42.946Z,14.30
2019-02-18T23:35:11.626Z,16.50
2019-02-18T23:37:40.090Z,17.23
2019-02-18T23:40:09.009Z,16.27
2019-02-18T23:42:37.416Z,17.90
2019-02-18T23:45:06.036Z,15.53
2019-02-18T23:47:34.420Z,14.70
2019-02-18T23:50:03.338Z,16.63
2019-02-18T23:52:31.749Z,17.33
2019-02-18T23:55:00.410Z,15.97
2019-02-18T23:57:29.703Z,15.77
2019-02-18T23:59:58.392Z,15.90
